sensor_id;sensor_type;location;lat;lon;timestamp;pressure;altitude;pressure_sealevel;temperature;humidity
6827;BME280;3451;52.476;13.316;2022-07-22T00:00:21;107908.81;;;-145.19;100.00
6827;BME280;3451;52.476;13.316;2022-07-22T00:02:48;107908.81;;;-145.19;100.00
6827;BME280;3451;52.476;13.316;2022-07-22T00:05:15;107645.38;;;-145.19;100.00
6827;BME280;3451;52.476;13.316;2022-07-22T00:07:41;107381.97;;;-145.19;100.00
6827;BME280;3451;52.476;13.316;2022-07-22T00:10:09;106855.22;;;-145.19;100.00
6827;BME280;3451;52.476;13.316;2022-07-22T00:12:37;106328.50;;;-145.19;100.00
6827;BME280;3451;52.476;13.316;2022-07-22T00:15:05;106328.50;;;-145.19;100.00
6827;BME280;3451;52.476;13.316;2022-07-22T00:17:32;105801.88;;;-145.19;100.00
6827;BME280;3451;52.476;13.316;2022-07-22T00:19:58;105801.88;;;-145.19;100.00
6827;BME280;3451;52.476;13.316;2022-07-22T00:22:25;105538.59;;;-145.19;100.00
6827;BME280;3451;52.476;13.316;2022-07-22T00:24:51;105538.59;;;-145.19;100.00
6827;BME280;3451;52.476;13.316;2022-07-22T00:27:18;105538.59;;;-145.19;100.00
6827;BME280;3451;52.476;13.316;2022-07-22T00:29:45;105538.59;;;-145.19;100.00
6827;BME280;3451;52.476;13.316;2022-07-22T00:32:12;105275.31;;;-145.19;100.00
6827;BME280;3451;52.476;13.316;2022-07-22T00:34:38;105012.06;;;-145.19;100.00
6827;BME280;3451;52.476;13.316;2022-07-22T00:37:04;104485.59;;;-145.19;100.00
6827;BME280;3451;52.476;13.316;2022-07-22T00:39:32;104485.59;;;-145.19;100.00
6827;BME280;3451;52.476;13.316;2022-07-22T00:41:59;104485.59;;;-145.19;100.00
6827;BME280;3451;52.476;13.316;2022-07-22T00:44:26;103959.22;;;-145.19;100.00
6827;BME280;3451;52.476;13.316;2022-07-22T00:46:53;104222.41;;;-145.19;100.00
6827;BME280;3451;52.476;13.316;2022-07-22T00:49:20;103959.22;;;-145.19;100.00
6827;BME280;3451;52.476;13.316;2022-07-22T00:51:46;103696.03;;;-145.19;100.00
6827;BME280;3451;52.476;13.316;2022-07-22T00:54:13;103432.91;;;-145.19;100.00
6827;BME280;3451;52.476;13.316;2022-07-22T00:56:40;102906.63;;;-145.19;100.00
6827;BME280;3451;52.476;13.316;2022-07-22T00:59:08;102906.63;;;-145.19;100.00
6827;BME280;3451;52.476;13.316;2022-07-22T01:01:35;103169.75;;;-145.19;100.00
6827;BME280;3451;52.476;13.316;2022-07-22T01:04:02;103169.75;;;-145.19;100.00
6827;BME280;3451;52.476;13.316;2022-07-22T01:06:29;102906.63;;;-145.19;100.00
6827;BME280;3451;52.476;13.316;2022-07-22T01:08:56;102906.63;;;-145.19;100.00
6827;BME280;3451;52.476;13.316;2022-07-22T01:11:25;102906.63;;;-145.19;100.00
6827;BME280;3451;52.476;13.316;2022-07-22T01:13:52;102380.44;;;-145.19;100.00
6827;BME280;3451;52.476;13.316;2022-07-22T01:16:20;102380.44;;;-145.19;100.00
6827;BME280;3451;52.476;13.316;2022-07-22T01:18:46;102380.44;;;-145.19;100.00
6827;BME280;3451;52.476;13.316;2022-07-22T01:21:14;102117.38;;;-145.19;100.00
6827;BME280;3451;52.476;13.316;2022-07-22T01:23:42;102117.38;;;-145.19;100.00
6827;BME280;3451;52.476;13.316;2022-07-22T01:26:08;102380.44;;;-145.19;100.00
6827;BME280;3451;52.476;13.316;2022-07-22T01:28:35;102117.38;;;-145.19;100.00
6827;BME280;3451;52.476;13.316;2022-07-22T01:31:02;102380.44;;;-145.19;100.00
6827;BME280;3451;52.476;13.316;2022-07-22T01:33:28;102117.38;;;-145.19;100.00
6827;BME280;3451;52.476;13.316;2022-07-22T01:35:55;102643.53;;;-145.19;100.00
6827;BME280;3451;52.476;13.316;2022-07-22T01:38:22;102643.53;;;-145.19;100.00
6827;BME280;3451;52.476;13.316;2022-07-22T01:40:48;102643.53;;;-145.19;100.00
6827;BME280;3451;52.476;13.316;2022-07-22T01:43:16;102643.53;;;-145.19;100.00
6827;BME280;3451;52.476;13.316;2022-07-22T01:45:45;102906.63;;;-145.19;100.00
6827;BME280;3451;52.476;13.316;2022-07-22T01:48:11;103432.91;;;-145.19;100.00
6827;BME280;3451;52.476;13.316;2022-07-22T01:50:39;103696.03;;;-145.19;100.00
6827;BME280;3451;52.476;13.316;2022-07-22T01:53:06;103432.91;;;-145.19;100.00
6827;BME280;3451;52.476;13.316;2022-07-22T01:55:33;103696.03;;;-145.19;100.00
6827;BME280;3451;52.476;13.316;2022-07-22T01:57:59;103696.03;;;-145.19;100.00
6827;BME280;3451;52.476;13.316;2022-07-22T02:00:26;103959.22;;;-145.19;100.00
6827;BME280;3451;52.476;13.316;2022-07-22T02:02:52;103959.22;;;-145.19;100.00
6827;BME280;3451;52.476;13.316;2022-07-22T02:05:19;103959.22;;;-145.19;100.00
6827;BME280;3451;52.476;13.316;2022-07-22T02:07:45;104222.41;;;-145.19;100.00
6827;BME280;3451;52.476;13.316;2022-07-22T02:10:12;104222.41;;;-145.19;100.00
6827;BME280;3451;52.476;13.316;2022-07-22T02:12:38;104222.41;;;-145.19;100.00
6827;BME280;3451;52.476;13.316;2022-07-22T02:15:06;104485.59;;;-145.19;100.00
6827;BME280;3451;52.476;13.316;2022-07-22T02:17:34;104485.59;;;-145.19;100.00
6827;BME280;3451;52.476;13.316;2022-07-22T02:20:00;104748.81;;;-145.19;100.00
6827;BME280;3451;52.476;13.316;2022-07-22T02:22:27;104485.59;;;-145.19;100.00
6827;BME280;3451;52.476;13.316;2022-07-22T02:24:54;104748.81;;;-145.19;100.00
6827;BME280;3451;52.476;13.316;2022-07-22T02:27:20;105012.06;;;-145.19;100.00
6827;BME280;3451;52.476;13.316;2022-07-22T02:29:47;105275.31;;;-145.19;100.00
6827;BME280;3451;52.476;13.316;2022-07-22T02:32:13;105538.59;;;-145.19;100.00
6827;BME280;3451;52.476;13.316;2022-07-22T02:34:39;105538.59;;;-145.19;100.00
6827;BME280;3451;52.476;13.316;2022-07-22T02:37:06;105801.88;;;-145.19;100.00
6827;BME280;3451;52.476;13.316;2022-07-22T02:39:33;106065.19;;;-145.19;100.00
6827;BME280;3451;52.476;13.316;2022-07-22T02:41:59;106328.50;;;-145.19;100.00
6827;BME280;3451;52.476;13.316;2022-07-22T02:44:26;106328.50;;;-145.19;100.00
6827;BME280;3451;52.476;13.316;2022-07-22T02:47:17;106328.50;;;-145.19;100.00
6827;BME280;3451;52.476;13.316;2022-07-22T02:49:44;106328.50;;;-145.19;100.00
6827;BME280;3451;52.476;13.316;2022-07-22T02:52:10;106591.84;;;-145.19;100.00
6827;BME280;3451;52.476;13.316;2022-07-22T02:54:37;106855.22;;;-145.19;100.00
6827;BME280;3451;52.476;13.316;2022-07-22T02:57:03;106591.84;;;-145.19;100.00
6827;BME280;3451;52.476;13.316;2022-07-22T02:59:30;106591.84;;;-145.19;100.00
6827;BME280;3451;52.476;13.316;2022-07-22T03:01:56;106855.22;;;-145.19;100.00
6827;BME280;3451;52.476;13.316;2022-07-22T03:04:23;107118.59;;;-145.19;100.00
6827;BME280;3451;52.476;13.316;2022-07-22T03:06:49;107118.59;;;-145.19;100.00
6827;BME280;3451;52.476;13.316;2022-07-22T03:09:16;107118.59;;;-145.19;100.00
6827;BME280;3451;52.476;13.316;2022-07-22T03:11:42;106855.22;;;-145.19;100.00
6827;BME280;3451;52.476;13.316;2022-07-22T03:14:08;107381.97;;;-145.19;100.00
6827;BME280;3451;52.476;13.316;2022-07-22T03:16:35;107645.38;;;-145.19;100.00
6827;BME280;3451;52.476;13.316;2022-07-22T03:19:02;107645.38;;;-145.19;100.00
6827;BME280;3451;52.476;13.316;2022-07-22T03:21:28;107908.81;;;-145.19;100.00
6827;BME280;3451;52.476;13.316;2022-07-22T03:23:55;107908.81;;;-145.19;100.00
6827;BME280;3451;52.476;13.316;2022-07-22T03:26:21;108172.25;;;-145.19;100.00
6827;BME280;3451;52.476;13.316;2022-07-22T03:28:49;108172.25;;;-145.19;100.00
6827;BME280;3451;52.476;13.316;2022-07-22T03:31:15;108172.25;;;-145.19;100.00
6827;BME280;3451;52.476;13.316;2022-07-22T03:33:42;108172.25;;;-145.19;100.00
6827;BME280;3451;52.476;13.316;2022-07-22T03:36:08;108172.25;;;-145.19;100.00
6827;BME280;3451;52.476;13.316;2022-07-22T03:38:36;108172.25;;;-145.19;100.00
6827;BME280;3451;52.476;13.316;2022-07-22T03:41:03;108172.25;;;-145.19;100.00
6827;BME280;3451;52.476;13.316;2022-07-22T03:43:31;108435.72;;;-145.19;100.00
6827;BME280;3451;52.476;13.316;2022-07-22T03:45:57;108435.72;;;-145.19;100.00
6827;BME280;3451;52.476;13.316;2022-07-22T03:48:24;108699.19;;;-145.19;100.00
6827;BME280;3451;52.476;13.316;2022-07-22T03:50:50;108962.69;;;-145.19;100.00
6827;BME280;3451;52.476;13.316;2022-07-22T03:53:17;108962.69;;;-145.19;100.00
6827;BME280;3451;52.476;13.316;2022-07-22T03:55:44;108962.69;;;-145.19;100.00
6827;BME280;3451;52.476;13.316;2022-07-22T03:58:10;109226.19;;;-145.19;100.00
6827;BME280;3451;52.476;13.316;2022-07-22T04:00:37;108962.69;;;-145.19;100.00
6827;BME280;3451;52.476;13.316;2022-07-22T04:03:03;108962.69;;;-145.19;100.00
6827;BME280;3451;52.476;13.316;2022-07-22T04:05:30;108962.69;;;-145.19;100.00
6827;BME280;3451;52.476;13.316;2022-07-22T04:07:56;108699.19;;;-145.19;100.00
6827;BME280;3451;52.476;13.316;2022-07-22T04:10:23;108699.19;;;-145.19;100.00
6827;BME280;3451;52.476;13.316;2022-07-22T04:12:49;108962.69;;;-145.19;100.00
6827;BME280;3451;52.476;13.316;2022-07-22T04:15:16;108962.69;;;-145.19;100.00
6827;BME280;3451;52.476;13.316;2022-07-22T04:17:43;108962.69;;;-145.19;100.00
6827;BME280;3451;52.476;13.316;2022-07-22T04:20:10;108962.69;;;-145.19;100.00
6827;BME280;3451;52.476;13.316;2022-07-22T04:22:36;108962.69;;;-145.19;100.00
6827;BME280;3451;52.476;13.316;2022-07-22T04:25:03;108699.19;;;-145.19;100.00
6827;BME280;3451;52.476;13.316;2022-07-22T04:27:29;108699.19;;;-145.19;100.00
6827;BME280;3451;52.476;13.316;2022-07-22T04:29:56;108435.72;;;-145.19;100.00
6827;BME280;3451;52.476;13.316;2022-07-22T04:32:22;108172.25;;;-145.19;100.00
6827;BME280;3451;52.476;13.316;2022-07-22T04:34:49;108435.72;;;-145.19;100.00
6827;BME280;3451;52.476;13.316;2022-07-22T04:37:15;108435.72;;;-145.19;100.00
6827;BME280;3451;52.476;13.316;2022-07-22T04:39:42;108435.72;;;-145.19;100.00
6827;BME280;3451;52.476;13.316;2022-07-22T04:42:08;108172.25;;;-145.19;100.00
6827;BME280;3451;52.476;13.316;2022-07-22T04:44:35;108172.25;;;-145.19;100.00
6827;BME280;3451;52.476;13.316;2022-07-22T04:47:01;107908.81;;;-145.19;100.00
6827;BME280;3451;52.476;13.316;2022-07-22T04:49:34;107645.38;;;-145.19;100.00
6827;BME280;3451;52.476;13.316;2022-07-22T04:52:00;107908.81;;;-145.19;100.00
6827;BME280;3451;52.476;13.316;2022-07-22T04:54:27;107645.38;;;-145.19;100.00
6827;BME280;3451;52.476;13.316;2022-07-22T04:56:54;107645.38;;;-145.19;100.00
6827;BME280;3451;52.476;13.316;2022-07-22T04:59:21;107645.38;;;-145.19;100.00
6827;BME280;3451;52.476;13.316;2022-07-22T05:01:49;107118.59;;;-145.19;100.00
6827;BME280;3451;52.476;13.316;2022-07-22T05:04:16;107118.59;;;-145.19;100.00
6827;BME280;3451;52.476;13.316;2022-07-22T05:06:42;106855.22;;;-145.19;100.00
6827;BME280;3451;52.476;13.316;2022-07-22T05:09:09;107118.59;;;-145.19;100.00
6827;BME280;3451;52.476;13.316;2022-07-22T05:11:35;106855.22;;;-145.19;100.00
6827;BME280;3451;52.476;13.316;2022-07-22T05:14:01;106855.22;;;-145.19;100.00
6827;BME280;3451;52.476;13.316;2022-07-22T05:16:28;106591.84;;;-145.19;100.00
6827;BME280;3451;52.476;13.316;2022-07-22T05:18:54;106591.84;;;-145.19;100.00
6827;BME280;3451;52.476;13.316;2022-07-22T05:21:21;106591.84;;;-145.19;100.00
6827;BME280;3451;52.476;13.316;2022-07-22T05:23:48;106591.84;;;-145.19;100.00
6827;BME280;3451;52.476;13.316;2022-07-22T05:26:14;106328.50;;;-145.19;100.00
6827;BME280;3451;52.476;13.316;2022-07-22T05:28:41;106065.19;;;-145.19;100.00
6827;BME280;3451;52.476;13.316;2022-07-22T05:31:07;106065.19;;;-145.19;100.00
6827;BME280;3451;52.476;13.316;2022-07-22T05:33:34;106328.50;;;-145.19;100.00
6827;BME280;3451;52.476;13.316;2022-07-22T05:36:00;106328.50;;;-145.19;100.00
6827;BME280;3451;52.476;13.316;2022-07-22T05:38:27;106065.19;;;-145.19;100.00
6827;BME280;3451;52.476;13.316;2022-07-22T05:40:54;105801.88;;;-145.19;100.00
6827;BME280;3451;52.476;13.316;2022-07-22T05:43:20;105801.88;;;-145.19;100.00
6827;BME280;3451;52.476;13.316;2022-07-22T05:45:46;105538.59;;;-145.19;100.00
6827;BME280;3451;52.476;13.316;2022-07-22T05:48:13;105538.59;;;-145.19;100.00
6827;BME280;3451;52.476;13.316;2022-07-22T05:50:39;105012.06;;;-145.19;100.00
6827;BME280;3451;52.476;13.316;2022-07-22T05:53:06;104748.81;;;-145.19;100.00
6827;BME280;3451;52.476;13.316;2022-07-22T05:55:33;104485.59;;;-145.19;100.00
6827;BME280;3451;52.476;13.316;2022-07-22T05:57:59;104485.59;;;-145.19;100.00
6827;BME280;3451;52.476;13.316;2022-07-22T06:00:25;104485.59;;;-145.19;100.00
6827;BME280;3451;52.476;13.316;2022-07-22T06:02:52;104485.59;;;-145.19;100.00
6827;BME280;3451;52.476;13.316;2022-07-22T06:05:19;104222.41;;;-145.19;100.00
6827;BME280;3451;52.476;13.316;2022-07-22T06:08:02;103959.22;;;-145.19;100.00
6827;BME280;3451;52.476;13.316;2022-07-22T06:10:28;103959.22;;;-145.19;100.00
6827;BME280;3451;52.476;13.316;2022-07-22T06:12:55;103696.03;;;-145.19;100.00
6827;BME280;3451;52.476;13.316;2022-07-22T06:15:21;103432.91;;;-145.19;100.00
6827;BME280;3451;52.476;13.316;2022-07-22T06:17:52;103959.22;;;-145.19;100.00
6827;BME280;3451;52.476;13.316;2022-07-22T06:20:18;103432.91;;;-145.19;100.00
6827;BME280;3451;52.476;13.316;2022-07-22T06:22:45;102906.63;;;-145.19;100.00
6827;BME280;3451;52.476;13.316;2022-07-22T06:25:11;102643.53;;;-145.19;100.00
6827;BME280;3451;52.476;13.316;2022-07-22T06:27:58;101854.34;;;-145.19;100.00
6827;BME280;3451;52.476;13.316;2022-07-22T06:30:24;101591.31;;;-145.19;100.00
6827;BME280;3451;52.476;13.316;2022-07-22T06:32:53;101328.28;;;-145.19;100.00
6827;BME280;3451;52.476;13.316;2022-07-22T06:35:22;100802.31;;;-145.19;100.00
6827;BME280;3451;52.476;13.316;2022-07-22T06:37:51;100539.34;;;-145.19;100.00
6827;BME280;3451;52.476;13.316;2022-07-22T06:40:33;100276.41;;;-145.19;100.00
6827;BME280;3451;52.476;13.316;2022-07-22T06:43:01;100276.41;;;-145.19;100.00
6827;BME280;3451;52.476;13.316;2022-07-22T06:45:28;100276.41;;;-145.19;100.00
6827;BME280;3451;52.476;13.316;2022-07-22T06:47:55;99750.53;;;-145.19;100.00
6827;BME280;3451;52.476;13.316;2022-07-22T06:50:21;98961.91;;;-145.19;100.00
6827;BME280;3451;52.476;13.316;2022-07-22T06:52:49;98436.22;;;-145.19;100.00
6827;BME280;3451;52.476;13.316;2022-07-22T06:55:16;97910.63;;;-145.19;100.00
6827;BME280;3451;52.476;13.316;2022-07-22T06:57:42;97122.34;;;-145.19;100.00
6827;BME280;3451;52.476;13.316;2022-07-22T07:00:09;97122.34;;;-145.19;100.00
6827;BME280;3451;52.476;13.316;2022-07-22T07:02:36;97385.09;;;-145.19;100.00
6827;BME280;3451;52.476;13.316;2022-07-22T07:05:03;97122.34;;;-145.19;100.00
6827;BME280;3451;52.476;13.316;2022-07-22T07:07:31;96334.22;;;-145.19;100.00
6827;BME280;3451;52.476;13.316;2022-07-22T07:10:03;95808.88;;;-145.19;100.00
6827;BME280;3451;52.476;13.316;2022-07-22T07:12:35;95021.03;;;-145.19;100.00
6827;BME280;3451;52.476;13.316;2022-07-22T07:15:04;94758.44;;;-145.19;100.00
6827;BME280;3451;52.476;13.316;2022-07-22T07:17:50;92658.31;;;-145.19;100.00
6827;BME280;3451;52.476;13.316;2022-07-22T07:20:17;90034.72;;;-145.19;100.00
6827;BME280;3451;52.476;13.316;2022-07-22T07:22:44;87937.06;;;-145.19;100.00
6827;BME280;3451;52.476;13.316;2022-07-22T07:25:10;85316.56;;;-145.19;100.00
6827;BME280;3451;52.476;13.316;2022-07-22T07:27:48;80865.56;;;-145.19;100.00
6827;BME280;3451;52.476;13.316;2022-07-22T07:30:15;77203.78;;;-145.19;100.00
6827;BME280;3451;52.476;13.316;2022-07-22T07:32:42;73380.00;;;-145.19;100.00
6827;BME280;3451;52.476;13.316;2022-07-22T07:35:09;68536.66;;;-145.19;100.00
6827;BME280;3451;52.476;13.316;2022-07-22T07:37:35;64499.28;;;-145.19;100.00
6827;BME280;3451;52.476;13.316;2022-07-22T07:40:03;60744.63;;;-145.19;100.00
6827;BME280;3451;52.476;13.316;2022-07-22T07:42:29;59532.50;;;-145.19;100.00
6827;BME280;3451;52.476;13.316;2022-07-22T07:44:56;58723.25;;;-145.19;100.00
6827;BME280;3451;52.476;13.316;2022-07-22T07:47:23;58062.56;;;-145.19;100.00
6827;BME280;3451;52.476;13.316;2022-07-22T07:49:49;58904.19;;;-145.19;100.00
6827;BME280;3451;52.476;13.316;2022-07-22T07:52:16;59550.78;;;-145.19;100.00
6827;BME280;3451;52.476;13.316;2022-07-22T07:54:44;57688.56;;;-145.19;100.00
6827;BME280;3451;52.476;13.316;2022-07-22T07:57:30;57424.34;;;-145.19;100.00
6827;BME280;3451;52.476;13.316;2022-07-22T07:59:57;57143.88;;;-145.19;100.00
6827;BME280;3451;52.476;13.316;2022-07-22T08:02:23;57647.91;;;-145.19;100.00
6827;BME280;3451;52.476;13.316;2022-07-22T08:04:50;56215.25;;;-145.19;100.00
6827;BME280;3451;52.476;13.316;2022-07-22T08:07:24;55544.84;;;-145.19;100.00
6827;BME280;3451;52.476;13.316;2022-07-22T08:09:52;54523.16;;;-145.19;100.00
6827;BME280;3451;52.476;13.316;2022-07-22T08:12:35;53995.16;;;-145.19;100.00
6827;BME280;3451;52.476;13.316;2022-07-22T08:15:02;53487.53;;;-145.19;100.00
6827;BME280;3451;52.476;13.316;2022-07-22T08:17:30;53174.88;;;-145.19;100.00
6827;BME280;3451;52.476;13.316;2022-07-22T08:19:56;52610.53;;;-145.19;100.00
6827;BME280;3451;52.476;13.316;2022-07-22T08:22:23;52025.94;;;-145.19;100.00
6827;BME280;3451;52.476;13.316;2022-07-22T08:24:49;51851.41;;;-145.19;100.00
6827;BME280;3451;52.476;13.316;2022-07-22T08:27:16;52001.59;;;-145.19;100.00
6827;BME280;3451;52.476;13.316;2022-07-22T08:29:43;51745.88;;;-145.19;100.00
6827;BME280;3451;52.476;13.316;2022-07-22T08:32:09;51642.38;;;-145.19;100.00
6827;BME280;3451;52.476;13.316;2022-07-22T08:34:36;51707.31;;;-145.19;100.00
6827;BME280;3451;52.476;13.316;2022-07-22T08:37:02;51790.53;;;-145.19;100.00
6827;BME280;3451;52.476;13.316;2022-07-22T08:39:29;51865.63;;;-145.19;100.00
6827;BME280;3451;52.476;13.316;2022-07-22T08:41:56;51983.34;;;-145.19;100.00
6827;BME280;3451;52.476;13.316;2022-07-22T08:44:23;52413.63;;;-145.19;100.00
6827;BME280;3451;52.476;13.316;2022-07-22T08:46:50;52257.34;;;-145.19;100.00
6827;BME280;3451;52.476;13.316;2022-07-22T08:49:16;52462.34;;;-145.19;100.00
6827;BME280;3451;52.476;13.316;2022-07-22T08:51:44;52176.16;;;-145.19;100.00
6827;BME280;3451;52.476;13.316;2022-07-22T08:54:13;52395.34;;;-145.19;100.00
6827;BME280;3451;52.476;13.316;2022-07-22T08:56:39;52801.34;;;-145.19;100.00
6827;BME280;3451;52.476;13.316;2022-07-22T08:59:06;53105.84;;;-145.19;100.00
6827;BME280;3451;52.476;13.316;2022-07-22T09:01:32;53467.25;;;-145.19;100.00
6827;BME280;3451;52.476;13.316;2022-07-22T09:03:59;54693.75;;;-145.19;100.00
6827;BME280;3451;52.476;13.316;2022-07-22T09:06:28;56318.88;;;-145.19;100.00
6827;BME280;3451;52.476;13.316;2022-07-22T09:09:02;57149.97;;;-145.19;100.00
6827;BME280;3451;52.476;13.316;2022-07-22T09:11:38;57812.56;;;-145.19;100.00
6827;BME280;3451;52.476;13.316;2022-07-22T09:14:05;59603.66;;;-145.19;100.00
6827;BME280;3451;52.476;13.316;2022-07-22T09:16:46;59245.78;;;-145.19;100.00
6827;BME280;3451;52.476;13.316;2022-07-22T09:19:14;58237.38;;;-145.19;100.00
6827;BME280;3451;52.476;13.316;2022-07-22T09:21:42;56400.16;;;-145.19;100.00
6827;BME280;3451;52.476;13.316;2022-07-22T09:24:26;54600.34;;;-145.19;100.00
6827;BME280;3451;52.476;13.316;2022-07-22T09:26:55;54726.25;;;-145.19;100.00
6827;BME280;3451;52.476;13.316;2022-07-22T09:29:22;54978.13;;;-145.19;100.00
6827;BME280;3451;52.476;13.316;2022-07-22T09:31:51;55189.34;;;-145.19;100.00
6827;BME280;3451;52.476;13.316;2022-07-22T09:34:30;57141.84;;;-145.19;100.00
6827;BME280;3451;52.476;13.316;2022-07-22T09:36:58;58383.75;;;-145.19;100.00
6827;BME280;3451;52.476;13.316;2022-07-22T09:39:27;57202.81;;;-145.19;100.00
6827;BME280;3451;52.476;13.316;2022-07-22T09:42:02;56071.00;;;-145.19;100.00
6827;BME280;3451;52.476;13.316;2022-07-22T09:44:28;55085.75;;;-145.19;100.00
6827;BME280;3451;52.476;13.316;2022-07-22T09:46:55;54679.53;;;-145.19;100.00
6827;BME280;3451;52.476;13.316;2022-07-22T09:49:36;56520.03;;;-145.19;100.00
6827;BME280;3451;52.476;13.316;2022-07-22T09:52:06;57164.22;;;-145.19;100.00
6827;BME280;3451;52.476;13.316;2022-07-22T09:54:33;58904.19;;;-145.19;100.00
6827;BME280;3451;52.476;13.316;2022-07-22T09:56:59;60051.06;;;-145.19;100.00
6827;BME280;3451;52.476;13.316;2022-07-22T09:59:25;59599.59;;;-145.19;100.00
6827;BME280;3451;52.476;13.316;2022-07-22T10:01:58;59884.28;;;-145.19;100.00
6827;BME280;3451;52.476;13.316;2022-07-22T10:04:28;61485.09;;;-145.19;100.00
6827;BME280;3451;52.476;13.316;2022-07-22T10:06:58;61548.16;;;-145.19;100.00
6827;BME280;3451;52.476;13.316;2022-07-22T10:09:25;60453.75;;;-145.19;100.00
6827;BME280;3451;52.476;13.316;2022-07-22T10:11:53;59672.78;;;-145.19;100.00
6827;BME280;3451;52.476;13.316;2022-07-22T10:14:20;58023.94;;;-145.19;100.00
6827;BME280;3451;52.476;13.316;2022-07-22T10:16:48;60112.06;;;-145.19;100.00
6827;BME280;3451;52.476;13.316;2022-07-22T10:19:15;58499.63;;;-145.19;100.00
6827;BME280;3451;52.476;13.316;2022-07-22T10:21:42;55603.75;;;-145.19;100.00
6827;BME280;3451;52.476;13.316;2022-07-22T10:24:14;54328.22;;;-145.19;100.00
6827;BME280;3451;52.476;13.316;2022-07-22T10:26:51;53373.84;;;-145.19;100.00
6827;BME280;3451;52.476;13.316;2022-07-22T10:29:38;53193.16;;;-145.19;100.00
6827;BME280;3451;52.476;13.316;2022-07-22T10:43:03;49844.72;;;-145.19;100.00
6827;BME280;3451;52.476;13.316;2022-07-22T10:45:38;49505.97;;;-145.19;100.00
6827;BME280;3451;52.476;13.316;2022-07-22T10:48:11;49327.47;;;-145.19;100.00
6827;BME280;3451;52.476;13.316;2022-07-22T10:50:40;48639.97;;;-145.19;100.00
6827;BME280;3451;52.476;13.316;2022-07-22T10:53:12;48471.66;;;-145.19;100.00
6827;BME280;3451;52.476;13.316;2022-07-22T10:56:01;48621.72;;;-145.19;100.00
6827;BME280;3451;52.476;13.316;2022-07-22T11:00:59;49410.63;;;-145.19;100.00
6827;BME280;3451;52.476;13.316;2022-07-22T11:03:25;49465.41;;;-145.19;100.00
6827;BME280;3451;52.476;13.316;2022-07-22T11:05:52;49295.03;;;-145.19;100.00
6827;BME280;3451;52.476;13.316;2022-07-22T11:08:19;49745.31;;;-145.19;100.00
6827;BME280;3451;52.476;13.316;2022-07-22T11:10:49;49867.03;;;-145.19;100.00
6827;BME280;3451;52.476;13.316;2022-07-22T11:13:36;49936.00;;;-145.19;100.00
6827;BME280;3451;52.476;13.316;2022-07-22T11:16:22;50406.66;;;-145.19;100.00
6827;BME280;3451;52.476;13.316;2022-07-22T11:18:53;50288.97;;;-145.19;100.00
6827;BME280;3451;52.476;13.316;2022-07-22T11:21:22;50491.84;;;-145.19;100.00
6827;BME280;3451;52.476;13.316;2022-07-22T11:23:51;50542.59;;;-145.19;100.00
6827;BME280;3451;52.476;13.316;2022-07-22T11:26:25;50650.13;;;-145.19;100.00
6827;BME280;3451;52.476;13.316;2022-07-22T11:28:52;50938.22;;;-145.19;100.00
6827;BME280;3451;52.476;13.316;2022-07-22T11:31:19;50899.69;;;-145.19;100.00
6827;BME280;3451;52.476;13.316;2022-07-22T11:33:45;50960.53;;;-145.19;100.00
6827;BME280;3451;52.476;13.316;2022-07-22T11:36:12;51185.78;;;-145.19;100.00
6827;BME280;3451;52.476;13.316;2022-07-22T11:38:40;50623.75;;;-145.19;100.00
6827;BME280;3451;52.476;13.316;2022-07-22T11:41:08;51157.38;;;-145.19;100.00
6827;BME280;3451;52.476;13.316;2022-07-22T11:43:44;50820.53;;;-145.19;100.00
6827;BME280;3451;52.476;13.316;2022-07-22T11:46:11;49950.19;;;-145.19;100.00
6827;BME280;3451;52.476;13.316;2022-07-22T11:48:39;49698.66;;;-145.19;100.00
6827;BME280;3451;52.476;13.316;2022-07-22T11:51:06;49877.16;;;-145.19;100.00
6827;BME280;3451;52.476;13.316;2022-07-22T11:53:34;49619.56;;;-145.19;100.00
6827;BME280;3451;52.476;13.316;2022-07-22T11:56:03;49477.56;;;-145.19;100.00
6827;BME280;3451;52.476;13.316;2022-07-22T12:01:04;49327.47;;;-145.19;100.00
6827;BME280;3451;52.476;13.316;2022-07-22T12:03:33;49179.44;;;-145.19;100.00
6827;BME280;3451;52.476;13.316;2022-07-22T12:06:00;49033.41;;;-145.19;100.00
6827;BME280;3451;52.476;13.316;2022-07-22T12:08:27;48960.38;;;-145.19;100.00
6827;BME280;3451;52.476;13.316;2022-07-22T12:10:56;48836.69;;;-145.19;100.00
6827;BME280;3451;52.476;13.316;2022-07-22T12:13:28;49181.44;;;-145.19;100.00
6827;BME280;3451;52.476;13.316;2022-07-22T12:15:55;49761.56;;;-145.19;100.00
6827;BME280;3451;52.476;13.316;2022-07-22T12:18:25;49919.78;;;-145.19;100.00
6827;BME280;3451;52.476;13.316;2022-07-22T12:20:54;50069.88;;;-145.19;100.00
6827;BME280;3451;52.476;13.316;2022-07-22T12:23:22;50094.22;;;-145.19;100.00
6827;BME280;3451;52.476;13.316;2022-07-22T12:25:58;50021.19;;;-145.19;100.00
6827;BME280;3451;52.476;13.316;2022-07-22T12:28:26;50029.31;;;-145.19;100.00
6827;BME280;3451;52.476;13.316;2022-07-22T12:30:54;49704.75;;;-145.19;100.00
6827;BME280;3451;52.476;13.316;2022-07-22T12:33:22;50268.69;;;-145.19;100.00
6827;BME280;3451;52.476;13.316;2022-07-22T12:36:06;50161.19;;;-145.19;100.00
6827;BME280;3451;52.476;13.316;2022-07-22T12:38:33;49907.59;;;-145.19;100.00
6827;BME280;3451;52.476;13.316;2022-07-22T12:41:26;49785.88;;;-145.19;100.00
6827;BME280;3451;52.476;13.316;2022-07-22T12:43:55;49700.69;;;-145.19;100.00
6827;BME280;3451;52.476;13.316;2022-07-22T12:46:22;49349.78;;;-145.19;100.00
6827;BME280;3451;52.476;13.316;2022-07-22T12:48:51;49400.50;;;-145.19;100.00
6827;BME280;3451;52.476;13.316;2022-07-22T12:51:18;49524.22;;;-145.19;100.00
6827;BME280;3451;52.476;13.316;2022-07-22T12:53:45;49574.94;;;-145.19;100.00
6827;BME280;3451;52.476;13.316;2022-07-22T12:56:11;49441.06;;;-145.19;100.00